Time;durP1;ratioP1;P1;durP2;ratioP2;P2;SDS_P1;SDS_P2;PMS_P1;PMS_P2;Temp;Humidity;BMP_temperature;BMP_pressure;BME280_temperature;BME280_humidity;BME280_pressure;Samples;Min_cycle;Max_cycle;Signal;HPM_P1;HPM_P2
2023/03/31 00:02:12;;;;;;;6.50;4.90;;;;;;;25.71;13.85;100503.51;109356;1262;67570;-88
2023/03/31 00:07:15;;;;;;;7.80;5.40;;;;;;;25.71;13.82;100487.59;109487;1261;67448;-87
2023/03/31 00:09:44;;;;;;;6.60;5.10;;;;;;;25.72;13.69;100481.75;109429;1261;74450;-87
2023/03/31 00:12:12;;;;;;;8.60;5.10;;;;;;;25.72;13.77;100475.14;109462;1262;66882;-88
2023/03/31 00:14:38;;;;;;;10.80;5.10;;;;;;;25.73;13.76;100472.20;109440;1262;67445;-88
2023/03/31 00:17:03;;;;;;;8.50;5.40;;;;;;;25.73;13.94;100469.06;109501;1262;67511;-88
2023/03/31 00:19:31;;;;;;;6.10;5.00;;;;;;;25.73;13.73;100465.89;109477;1261;67730;-88
2023/03/31 00:22:00;;;;;;;6.70;4.80;;;;;;;25.73;13.86;100460.34;109393;1262;67585;-88
2023/03/31 00:24:27;;;;;;;7.50;5.20;;;;;;;25.74;13.94;100458.58;109378;1261;67469;-88
2023/03/31 00:26:53;;;;;;;6.90;4.90;;;;;;;25.73;13.84;100450.33;109356;1262;66908;-88
2023/03/31 00:29:18;;;;;;;6.30;5.30;;;;;;;25.74;13.83;100441.91;109516;1261;67598;-88
2023/03/31 00:31:47;;;;;;;7.60;5.10;;;;;;;25.75;13.70;100436.60;109423;1262;67605;-91
2023/03/31 00:34:13;;;;;;;7.40;5.20;;;;;;;25.75;13.76;100433.91;109490;1262;74158;-88
2023/03/31 00:36:46;;;;;;;7.00;5.00;;;;;;;25.76;13.92;100432.75;109495;1261;66809;-88
2023/03/31 00:39:12;;;;;;;7.20;5.00;;;;;;;25.75;13.90;100431.13;109188;1261;67630;-87
2023/03/31 00:41:37;;;;;;;5.90;4.80;;;;;;;25.76;13.69;100431.77;109442;1260;67411;-88
2023/03/31 00:44:23;;;;;;;7.80;4.80;;;;;;;25.77;13.87;100434.64;109403;1260;67493;-88
2023/03/31 00:46:57;;;;;;;10.10;4.70;;;;;;;25.77;13.86;100432.12;109403;1260;74171;-88
2023/03/31 00:52:12;;;;;;;6.40;4.80;;;;;;;25.78;13.65;100425.85;109500;1260;67443;-88
2023/03/31 00:54:38;;;;;;;6.30;4.40;;;;;;;25.77;13.72;100425.77;109474;1260;66790;-88
2023/03/31 00:57:05;;;;;;;5.30;4.20;;;;;;;25.78;13.57;100425.34;109561;1260;66978;-88
2023/03/31 00:59:33;;;;;;;5.50;4.30;;;;;;;25.78;13.83;100421.20;109291;1260;67806;-88
2023/03/31 01:02:01;;;;;;;5.80;4.30;;;;;;;25.79;13.79;100414.18;109554;1260;67373;-88
2023/03/31 01:09:59;;;;;;;7.00;4.30;;;;;;;25.79;13.76;100409.50;109476;1260;67799;-88
2023/03/31 01:12:24;;;;;;;6.80;4.00;;;;;;;25.79;13.60;100404.55;109318;1260;82727;-88
2023/03/31 01:14:50;;;;;;;6.50;4.00;;;;;;;25.79;13.68;100405.83;109310;1260;66981;-88
2023/03/31 01:17:17;;;;;;;6.40;4.10;;;;;;;25.79;13.55;100402.31;109367;1266;67525;-88
2023/03/31 01:20:11;;;;;;;5.70;4.00;;;;;;;25.80;13.59;100396.29;109404;1261;67569;-88
2023/03/31 01:23:01;;;;;;;4.70;3.70;;;;;;;25.79;13.70;100389.59;109493;1261;67531;-88
2023/03/31 01:25:46;;;;;;;5.80;3.80;;;;;;;25.79;13.69;100386.30;109344;1262;74431;-92
2023/03/31 01:31:13;;;;;;;5.10;3.90;;;;;;;25.79;13.82;100390.88;109252;1263;67594;-88
2023/03/31 01:34:09;;;;;;;5.20;3.40;;;;;;;25.80;13.63;100390.95;109300;1264;67617;-88
2023/03/31 01:37:13;;;;;;;4.20;3.70;;;;;;;25.80;13.78;100387.10;109305;1264;67488;-88
2023/03/31 01:39:42;;;;;;;5.70;3.50;;;;;;;25.80;13.70;100379.77;109129;1263;74269;-87
2023/03/31 01:42:29;;;;;;;5.10;4.40;;;;;;;25.81;13.73;100380.53;109282;1264;67622;-88
2023/03/31 01:45:03;;;;;;;5.20;3.50;;;;;;;25.81;13.83;100381.26;109195;1263;67333;-88
2023/03/31 01:47:40;;;;;;;5.90;4.10;;;;;;;25.82;13.98;100380.09;109303;1264;67474;-88
2023/03/31 01:50:29;;;;;;;5.80;4.00;;;;;;;25.82;13.80;100371.03;109360;1263;66857;-88
2023/03/31 01:53:03;;;;;;;6.70;4.30;;;;;;;25.82;13.62;100361.92;109117;1264;73988;-88
2023/03/31 01:56:08;;;;;;;5.80;4.10;;;;;;;25.82;13.86;100357.23;109279;1263;67779;-88
2023/03/31 01:58:55;;;;;;;6.80;4.30;;;;;;;25.81;13.80;100356.20;109202;1264;66909;-88
2023/03/31 02:01:30;;;;;;;7.20;4.30;;;;;;;25.82;13.95;100347.27;109086;1264;66837;-88
2023/03/31 02:03:59;;;;;;;6.00;4.60;;;;;;;25.82;13.99;100341.66;109124;1263;67556;-87
2023/03/31 02:06:29;;;;;;;5.90;4.00;;;;;;;25.83;13.84;100347.67;109257;1263;74237;-88
2023/03/31 02:09:01;;;;;;;5.40;4.40;;;;;;;25.83;14.09;100345.29;109078;1263;68181;-88
2023/03/31 02:11:27;;;;;;;4.90;4.00;;;;;;;25.83;14.15;100341.02;109096;1263;67705;-88
2023/03/31 02:13:54;;;;;;;10.70;4.40;;;;;;;25.83;14.29;100336.48;109117;1263;68131;-88
2023/03/31 02:16:23;;;;;;;5.50;4.30;;;;;;;25.83;14.12;100336.54;109145;1264;67468;-88
2023/03/31 02:18:48;;;;;;;7.20;4.30;;;;;;;25.84;14.08;100335.18;109090;1262;74429;-88
2023/03/31 02:21:15;;;;;;;6.50;4.40;;;;;;;25.85;14.08;100337.95;109061;1262;67515;-87
2023/03/31 02:23:40;;;;;;;5.20;4.20;;;;;;;25.84;14.26;100333.52;109335;1262;67412;-87
2023/03/31 02:26:12;;;;;;;6.50;4.60;;;;;;;25.85;14.33;100336.59;109201;1262;67586;-88
2023/03/31 02:28:38;;;;;;;7.10;4.90;;;;;;;25.85;14.37;100332.44;109035;1262;67617;-88
2023/03/31 02:31:18;;;;;;;6.90;4.40;;;;;;;25.85;14.43;100331.75;109201;1262;67587;-87
2023/03/31 02:33:43;;;;;;;6.70;4.30;;;;;;;25.85;14.41;100326.20;109201;1262;67655;-88
2023/03/31 02:36:09;;;;;;;8.10;5.10;;;;;;;25.86;14.37;100327.30;109304;1262;67534;-88
2023/03/31 02:38:37;;;;;;;6.10;4.50;;;;;;;25.86;14.51;100333.73;109224;1262;67677;-87
2023/03/31 02:41:02;;;;;;;7.50;4.30;;;;;;;25.86;14.52;100335.55;109243;1262;67625;-88
2023/03/31 02:43:28;;;;;;;6.40;4.80;;;;;;;25.86;14.42;100335.80;109198;1262;67533;-88
2023/03/31 02:45:54;;;;;;;7.90;4.80;;;;;;;25.86;14.35;100337.70;109080;1262;66965;-87
2023/03/31 02:48:22;;;;;;;7.20;4.50;;;;;;;25.87;14.63;100339.59;109202;1262;67637;-87
2023/03/31 02:51:08;;;;;;;6.20;4.50;;;;;;;25.87;14.55;100338.20;109043;1262;67381;-87
2023/03/31 02:54:08;;;;;;;8.60;4.70;;;;;;;25.86;14.66;100336.79;109394;1262;67557;-87
2023/03/31 02:57:19;;;;;;;6.70;4.60;;;;;;;25.86;14.50;100337.70;109209;1262;82914;-87
2023/03/31 02:59:45;;;;;;;6.70;4.10;;;;;;;25.85;14.50;100342.11;109349;1262;67437;-87
2023/03/31 03:02:16;;;;;;;8.80;4.20;;;;;;;25.86;14.43;100341.78;109376;1262;67553;-87
2023/03/31 03:05:01;;;;;;;8.60;4.50;;;;;;;25.86;14.40;100344.30;109301;1262;67673;-87
2023/03/31 03:07:51;;;;;;;6.10;4.50;;;;;;;25.85;14.55;100343.05;109255;1262;67573;-88
2023/03/31 03:10:26;;;;;;;5.30;4.30;;;;;;;25.84;14.80;100350.18;109354;1262;74308;-87
2023/03/31 03:12:55;;;;;;;6.20;4.00;;;;;;;25.83;14.91;100350.77;109075;1262;67656;-87
2023/03/31 03:15:22;;;;;;;6.00;4.90;;;;;;;25.81;14.98;100347.81;109277;1262;67311;-87
2023/03/31 03:17:48;;;;;;;9.00;4.50;;;;;;;25.79;14.88;100345.99;109349;1262;67464;-87
2023/03/31 03:20:15;;;;;;;7.30;4.80;;;;;;;25.75;15.11;100342.17;109221;1265;66916;-87
2023/03/31 03:22:40;;;;;;;10.70;5.00;;;;;;;25.68;15.09;100344.59;109258;1262;67558;-87
2023/03/31 03:25:10;;;;;;;10.00;6.60;;;;;;;25.60;14.96;100347.50;109051;1262;67513;-92
2023/03/31 03:27:36;;;;;;;15.50;7.00;;;;;;;25.51;14.73;100344.25;109294;1262;67592;-87
2023/03/31 03:30:03;;;;;;;10.00;6.30;;;;;;;25.40;14.85;100341.29;109238;1262;67591;-88
2023/03/31 03:32:29;;;;;;;11.80;6.70;;;;;;;25.30;14.72;100341.23;109377;1262;67544;-87
2023/03/31 03:34:55;;;;;;;12.00;7.10;;;;;;;25.20;14.75;100334.02;109105;1262;67492;-87
2023/03/31 03:37:21;;;;;;;12.40;7.10;;;;;;;25.12;14.67;100323.52;109208;1262;67614;-87
2023/03/31 03:39:46;;;;;;;15.10;8.90;;;;;;;25.07;14.72;100323.46;109160;1262;67526;-87
2023/03/31 03:42:11;;;;;;;15.70;10.90;;;;;;;25.03;14.59;100326.47;109242;1262;67382;-87
2023/03/31 03:44:37;;;;;;;18.30;12.40;;;;;;;25.00;14.86;100323.35;109374;1262;66940;-87
2023/03/31 03:47:03;;;;;;;17.10;11.80;;;;;;;24.99;14.54;100321.35;109071;1262;67646;-87
2023/03/31 03:49:28;;;;;;;14.70;12.00;;;;;;;24.97;14.51;100322.73;109200;1262;67748;-87
2023/03/31 03:52:03;;;;;;;17.10;12.40;;;;;;;24.95;14.30;100319.00;109222;1262;67800;-93
2023/03/31 03:54:28;;;;;;;19.30;15.50;;;;;;;24.92;14.15;100313.86;109334;1262;67471;-88
2023/03/31 03:56:54;;;;;;;17.90;14.50;;;;;;;24.88;14.15;100312.86;109212;1262;67022;-87
2023/03/31 03:59:20;;;;;;;20.00;14.20;;;;;;;24.84;14.00;100315.51;109337;1262;67022;-87
2023/03/31 04:01:45;;;;;;;18.10;13.20;;;;;;;24.80;14.03;100316.81;109342;1262;67130;-88
2023/03/31 04:04:11;;;;;;;17.60;12.70;;;;;;;24.77;14.16;100322.79;109354;1262;66867;-88
2023/03/31 04:06:37;;;;;;;17.20;12.00;;;;;;;24.76;14.03;100320.08;109035;1262;75174;-88
2023/03/31 04:09:02;;;;;;;19.10;12.30;;;;;;;24.74;13.99;100314.59;109279;1262;67511;-88
2023/03/31 04:11:28;;;;;;;15.10;10.80;;;;;;;24.74;14.02;100315.89;109237;1262;68025;-88
2023/03/31 04:13:54;;;;;;;15.10;10.50;;;;;;;24.72;13.98;100315.20;109408;1262;67047;-88
2023/03/31 04:16:21;;;;;;;18.40;10.40;;;;;;;24.72;13.91;100316.70;109477;1262;67128;-88
2023/03/31 04:21:25;;;;;;;15.20;9.90;;;;;;;24.69;13.91;100312.14;109473;1262;66979;-88
2023/03/31 04:23:57;;;;;;;18.20;9.50;;;;;;;24.69;14.07;100311.48;109485;1262;67171;-88
2023/03/31 04:26:29;;;;;;;14.60;9.40;;;;;;;24.67;14.03;100311.05;109530;1261;67474;-88
2023/03/31 04:28:59;;;;;;;20.90;9.60;;;;;;;24.67;14.03;100314.96;109487;1261;74338;-87
2023/03/31 04:31:25;;;;;;;14.50;8.80;;;;;;;24.67;13.91;100313.88;109626;1260;67417;-88
2023/03/31 04:33:53;;;;;;;15.30;7.90;;;;;;;24.68;13.98;100311.70;109607;1260;67637;-92
2023/03/31 04:36:20;;;;;;;14.30;8.00;;;;;;;24.69;14.26;100307.61;109599;1260;67793;-88
2023/03/31 04:38:46;;;;;;;12.80;7.30;;;;;;;24.71;14.44;100308.83;109559;1260;66868;-88
2023/03/31 04:41:13;;;;;;;14.80;7.00;;;;;;;24.72;14.57;100303.42;109516;1260;74190;-88
2023/03/31 04:43:39;;;;;;;10.00;6.80;;;;;;;24.73;14.75;100307.52;109569;1260;67421;-88
2023/03/31 04:46:04;;;;;;;12.50;6.30;;;;;;;24.76;14.76;100306.23;109333;1260;67560;-89
2023/03/31 04:48:30;;;;;;;16.70;6.20;;;;;;;24.80;14.90;100309.30;109402;1260;67214;-89
2023/03/31 04:50:56;;;;;;;8.70;6.10;;;;;;;24.83;15.03;100307.43;109398;1260;67788;-89
2023/03/31 04:53:22;;;;;;;11.00;6.10;;;;;;;24.87;15.06;100305.36;109494;1260;67091;-88
2023/03/31 04:55:51;;;;;;;9.00;5.60;;;;;;;24.89;15.26;100302.95;109395;1262;67639;-90
2023/03/31 04:58:43;;;;;;;9.40;5.70;;;;;;;24.91;15.19;100300.03;109372;1260;67581;-90
2023/03/31 05:01:09;;;;;;;15.30;5.20;;;;;;;24.93;15.19;100298.96;109349;1260;67539;-88
2023/03/31 05:03:48;;;;;;;9.60;6.20;;;;;;;24.94;15.50;100299.35;109118;1260;67813;-90
2023/03/31 05:06:14;;;;;;;11.30;5.60;;;;;;;24.95;15.35;100297.85;109372;1260;67045;-88
2023/03/31 05:08:43;;;;;;;9.90;5.70;;;;;;;24.94;15.53;100294.57;109316;1260;67672;-89
2023/03/31 05:11:10;;;;;;;11.40;5.40;;;;;;;24.94;15.44;100292.70;109243;1260;67669;-89
2023/03/31 05:13:36;;;;;;;11.30;5.80;;;;;;;24.95;15.49;100284.58;109364;1260;68034;-89
2023/03/31 05:16:23;;;;;;;;;;;;;;;;;;;;;
2023/03/31 05:18:45;;;;;;;9.70;6.10;;;;;;;24.96;15.87;100280.06;109102;1262;68082;-91
2023/03/31 05:21:22;;;;;;;12.00;6.00;;;;;;;24.97;15.85;100277.54;109191;1263;67497;-90
2023/03/31 05:32:29;;;;;;;9.50;5.20;;;;;;;25.03;15.97;100269.55;109436;1260;67763;-90
2023/03/31 05:38:06;;;;;;;11.10;5.60;;;;;;;25.07;16.14;100264.31;109652;1261;66944;-90
2023/03/31 05:40:45;;;;;;;11.50;5.20;;;;;;;25.09;16.26;100266.53;109376;1262;67082;-89
2023/03/31 05:57:07;;;;;;;10.60;7.20;;;;;;;25.19;16.88;100251.29;109175;1264;73997;-88
2023/03/31 05:59:43;;;;;;;12.50;7.50;;;;;;;25.21;16.96;100248.07;109036;1264;68103;-88
2023/03/31 06:02:12;;;;;;;17.20;11.90;;;;;;;25.22;16.93;100246.20;108976;1264;67525;-89
2023/03/31 06:04:38;;;;;;;18.00;13.30;;;;;;;25.22;16.96;100246.91;108967;1265;67961;-85
2023/03/31 06:07:04;;;;;;;19.90;13.30;;;;;;;25.22;17.17;100244.60;108924;1264;67050;-87
2023/03/31 06:09:39;;;;;;;18.00;14.20;;;;;;;25.22;17.17;100246.04;108854;1264;67521;-90
2023/03/31 06:12:05;;;;;;;18.90;15.30;;;;;;;25.21;17.31;100235.92;109119;1264;67401;-87
2023/03/31 06:14:46;;;;;;;23.90;16.50;;;;;;;25.21;17.47;100238.44;109174;1264;67293;-89
2023/03/31 06:17:20;;;;;;;25.00;17.60;;;;;;;25.19;17.77;100237.09;109158;1266;67747;-89
2023/03/31 06:19:55;;;;;;;22.10;18.20;;;;;;;25.17;17.92;100227.67;109284;1261;67394;-88
2023/03/31 06:22:22;;;;;;;21.20;15.30;;;;;;;25.13;17.89;100225.94;109314;1262;74358;-89
2023/03/31 06:24:49;;;;;;;20.00;14.30;;;;;;;25.11;17.94;100219.75;109239;1261;67549;-89
2023/03/31 06:30:08;;;;;;;17.60;13.40;;;;;;;25.09;18.27;100217.94;109461;1260;67026;-90
2023/03/31 06:32:34;;;;;;;15.10;12.70;;;;;;;25.09;18.39;100219.99;109265;1260;66810;-89
2023/03/31 06:35:04;;;;;;;17.20;12.30;;;;;;;25.10;18.71;100223.73;109257;1260;67131;-90
2023/03/31 06:37:42;;;;;;;15.40;11.50;;;;;;;25.09;18.63;100218.86;109517;1260;67419;-90
2023/03/31 06:40:40;;;;;;;14.20;10.10;;;;;;;25.06;18.86;100217.37;109382;1260;68140;-89
2023/03/31 06:43:16;;;;;;;12.70;9.30;;;;;;;25.05;18.94;100221.40;109411;1260;68036;-90
2023/03/31 06:48:26;;;;;;;12.10;9.00;;;;;;;25.07;19.02;100217.20;109505;1260;74226;-88
2023/03/31 06:51:04;;;;;;;12.40;9.00;;;;;;;25.08;19.13;100215.70;109308;1260;67134;-90
2023/03/31 06:53:30;;;;;;;14.30;8.50;;;;;;;25.09;19.30;100213.88;109089;1260;67049;-88
2023/03/31 06:56:02;;;;;;;11.00;8.00;;;;;;;25.10;19.38;100221.21;109452;1260;67993;-88
2023/03/31 06:58:31;;;;;;;11.00;7.60;;;;;;;25.11;19.60;100225.36;109451;1260;67604;-88
2023/03/31 07:01:00;;;;;;;13.20;8.10;;;;;;;25.11;19.60;100225.36;109334;1260;67356;-87
2023/03/31 07:03:28;;;;;;;17.60;10.90;;;;;;;25.12;19.75;100222.92;109365;1260;67551;-88
2023/03/31 07:05:54;;;;;;;17.20;12.60;;;;;;;25.12;20.01;100220.09;109403;1260;67253;-87
2023/03/31 07:08:20;;;;;;;15.70;12.40;;;;;;;25.12;19.81;100219.73;109265;1260;67623;-89
2023/03/31 07:10:47;;;;;;;16.40;12.70;;;;;;;25.13;19.98;100219.05;109319;1260;67158;-88
2023/03/31 07:13:14;;;;;;;17.30;11.60;;;;;;;25.12;20.16;100216.39;109279;1260;68073;-87
2023/03/31 07:15:40;;;;;;;15.60;10.60;;;;;;;25.12;20.38;100209.60;109450;1260;67969;-89
2023/03/31 07:29:14;;;;;;;13.70;9.30;;;;;;;25.09;20.52;100198.73;109045;1264;68482;-87
2023/03/31 07:31:40;;;;;;;14.70;8.80;;;;;;;25.08;20.93;100197.77;108889;1264;67578;-86
2023/03/31 07:34:05;;;;;;;11.70;7.90;;;;;;;25.06;21.02;100185.45;109121;1268;66958;-87
2023/03/31 07:36:31;;;;;;;12.80;8.60;;;;;;;25.06;21.15;100188.05;108927;1265;67426;-88
2023/03/31 07:38:57;;;;;;;14.60;11.20;;;;;;;25.03;21.18;100187.23;108916;1270;67158;-87
2023/03/31 07:41:25;;;;;;;16.00;11.20;;;;;;;25.02;21.11;100190.39;109070;1264;67974;-88
2023/03/31 07:49:53;;;;;;;13.00;10.30;;;;;;;24.96;21.17;100178.94;109298;1260;74657;-90
2023/03/31 07:52:29;;;;;;;13.20;9.60;;;;;;;24.94;21.21;100175.64;109210;1267;67535;-89
2023/03/31 07:54:58;;;;;;;12.20;9.00;;;;;;;24.91;21.35;100176.52;109276;1260;67286;-87
2023/03/31 08:08:20;;;;;;;10.80;7.40;;;;;;;24.75;21.59;100159.25;109480;1260;67573;-90
2023/03/31 08:13:30;;;;;;;12.30;8.20;;;;;;;24.67;21.75;100154.86;109472;1260;67056;-90
2023/03/31 08:15:57;;;;;;;14.60;8.60;;;;;;;24.63;21.91;100149.12;109288;1261;74247;-90
2023/03/31 08:23:46;;;;;;;13.80;6.80;;;;;;;24.53;22.19;100127.52;109213;1264;66949;-90
2023/03/31 08:28:50;;;;;;;10.00;6.60;;;;;;;24.50;22.45;100109.38;109499;1260;73815;-89
2023/03/31 08:31:18;;;;;;;13.60;6.50;;;;;;;24.51;22.56;100103.54;109178;1263;67600;-90
2023/03/31 08:45:30;;;;;;;11.20;7.30;;;;;;;24.68;22.97;100083.23;109611;1259;66892;-86
2023/03/31 08:48:01;;;;;;;9.20;7.00;;;;;;;24.72;22.98;100077.61;109567;1259;67315;-92
2023/03/31 08:50:29;;;;;;;9.40;7.50;;;;;;;24.75;23.19;100068.86;109575;1259;67517;-86
2023/03/31 08:53:05;;;;;;;11.50;7.20;;;;;;;24.77;23.14;100065.27;109568;1259;67261;-86
2023/03/31 08:55:36;;;;;;;8.30;7.10;;;;;;;24.80;23.16;100063.09;109467;1260;74338;-87
2023/03/31 08:58:07;;;;;;;9.90;7.60;;;;;;;24.82;23.35;100054.85;109457;1259;67040;-86
2023/03/31 09:00:45;;;;;;;12.60;9.50;;;;;;;24.84;23.31;100047.82;109513;1259;67509;-89
2023/03/31 09:03:23;;;;;;;12.70;9.20;;;;;;;24.86;23.27;100041.55;109530;1259;67535;-89
2023/03/31 09:05:59;;;;;;;15.50;10.30;;;;;;;24.89;23.41;100037.73;109396;1260;67708;-90
2023/03/31 09:08:35;;;;;;;14.70;10.60;;;;;;;24.91;23.48;100038.80;109529;1259;74474;-87
2023/03/31 09:14:16;;;;;;;20.30;13.30;;;;;;;24.93;23.56;100031.46;109518;1259;67023;-89
2023/03/31 09:17:10;;;;;;;16.20;13.20;;;;;;;24.92;23.62;100023.90;109395;1260;66814;-88
2023/03/31 09:19:55;;;;;;;19.20;13.40;;;;;;;24.93;23.70;100024.96;109504;1259;66878;-90
2023/03/31 09:22:30;;;;;;;20.30;13.10;;;;;;;24.95;23.92;100020.04;109401;1260;74269;-88
2023/03/31 09:25:35;;;;;;;17.60;12.40;;;;;;;24.96;24.06;100014.70;109444;1260;67935;-89
2023/03/31 09:28:01;;;;;;;19.30;11.70;;;;;;;24.98;24.06;100014.83;109477;1260;67408;-89
2023/03/31 09:30:29;;;;;;;14.10;10.20;;;;;;;24.99;24.27;100011.44;109199;1260;67349;-88
2023/03/31 09:33:31;;;;;;;13.50;9.50;;;;;;;25.00;24.35;100006.17;109313;1260;67954;-88
2023/03/31 09:36:00;;;;;;;13.60;9.80;;;;;;;25.00;24.36;100005.30;109276;1260;75481;-87
2023/03/31 09:38:28;;;;;;;10.80;8.90;;;;;;;25.01;24.46;100005.59;109204;1260;67697;-87
2023/03/31 09:40:57;;;;;;;12.10;8.00;;;;;;;25.03;24.65;100004.88;109209;1261;67693;-87
2023/03/31 09:43:26;;;;;;;11.00;8.30;;;;;;;25.04;24.64;100000.05;109128;1260;67997;-87
2023/03/31 09:45:52;;;;;;;13.30;9.50;;;;;;;25.05;24.63;99997.04;109130;1260;67091;-88
2023/03/31 09:48:22;;;;;;;11.80;8.40;;;;;;;25.05;24.64;99993.80;109288;1260;67947;-87
2023/03/31 09:51:04;;;;;;;12.20;8.30;;;;;;;25.06;24.58;99989.34;109107;1260;67145;-86
2023/03/31 11:40:41;;;;;;;15.70;6.80;;;;;;;25.21;26.38;99854.77;109731;1261;66959;-90
2023/03/31 13:27:47;;;;;;;6.80;5.40;;;;;;;25.57;26.36;99718.92;109713;1260;67862;-90
2023/03/31 13:47:52;;;;;;;25.90;21.70;;;;;;;25.75;25.73;99683.33;109707;1259;67053;-90
2023/03/31 13:54:35;;;;;;;17.00;13.50;;;;;;;25.79;25.60;99685.47;109360;1260;67547;-91
